Time;durP1;ratioP1;P1;durP2;ratioP2;P2;SDS_P1;SDS_P2;PMS_P1;PMS_P2;Temp;Humidity;BMP_temperature;BMP_pressure;BME280_temperature;BME280_humidity;BME280_pressure;Samples;Min_cycle;Max_cycle;Signal;HPM_P1;HPM_P2
2023/09/18 00:00:42;;;;;;;;;;;;;;;22.61;59.40;99174.03;1088495;47;1849;-81
2023/09/18 00:01:44;;;;;;;;;;;;;;;22.66;58.73;99178.75;1088813;54;1081;-81
2023/09/18 00:02:45;;;;;;;;;;;;;;;22.69;58.84;99178.25;1088727;54;1395;-82
2023/09/18 00:03:49;;;;;;;;;;;;;;;22.71;59.31;99174.22;1088635;47;1507;-82
2023/09/18 00:04:50;;;;;;;;;;;;;;;22.66;59.41;99173.31;1088625;54;1000;-81
2023/09/18 00:05:54;;;;;;;;;;;;;;;22.64;59.31;99173.53;1088713;54;1002;-81
2023/09/18 00:06:55;;;;;;;;;;;;;;;22.65;59.51;99177.09;1088851;47;970;-81
2023/09/18 00:08:02;;;;;;;;;;;;;;;22.61;59.58;99167.75;1089022;54;1176;-81
2023/09/18 00:09:03;;;;;;;;;;;;;;;22.58;59.68;99164.44;1088930;54;1062;-80
2023/09/18 00:10:12;;;;;;;;;;;;;;;22.58;59.64;99163.63;1088817;54;1337;-81
2023/09/18 00:11:15;;;;;;;;;;;;;;;22.61;59.41;99173.19;1089058;47;1039;-80
2023/09/18 00:12:19;;;;;;;;;;;;;;;22.59;59.41;99166.09;1088685;47;2135;-80
2023/09/18 00:13:20;;;;;;;;;;;;;;;22.62;59.29;99169.41;1088584;47;2074;-79
2023/09/18 00:22:41;;;;;;;;;;;;;;;22.55;59.52;99173.13;1088774;46;1214;-80
2023/09/18 00:23:47;;;;;;;;;;;;;;;22.55;59.35;99175.84;1088549;54;1034;-80
2023/09/18 01:37:53;;;;;;;;;;;;;;;21.82;62.89;99088.47;1088136;54;1612;-81
2023/09/18 02:35:49;;;;;;;;;;;;;;;21.79;65.28;99170.53;1087755;54;1010;-80
2023/09/18 02:36:52;;;;;;;;;;;;;;;21.71;66.02;99170.91;1087461;54;1112;-79
2023/09/18 02:37:57;;;;;;;;;;;;;;;;;;1087689;54;1015;-79
2023/09/18 02:38:57;;;;;;;;;;;;;;;21.41;67.05;99155.53;1086700;47;1153;-79
2023/09/18 02:40:00;;;;;;;;;;;;;;;21.52;66.96;99168.31;1087141;47;1087;-80
2023/09/18 02:41:01;;;;;;;;;;;;;;;21.53;66.00;99159.09;1086246;54;1842;-79
2023/09/18 02:42:05;;;;;;;;;;;;;;;21.56;66.01;99171.38;1087909;54;1032;-81
2023/09/18 02:43:12;;;;;;;;;;;;;;;21.62;66.27;99178.59;1088506;47;930;-83
2023/09/18 02:47:08;;;;;;;;;;;;;;;21.78;65.17;99182.47;1087777;47;879;-79
2023/09/18 02:48:10;;;;;;;;;;;;;;;21.83;64.95;99181.75;1086021;54;1151;-80
2023/09/18 02:49:13;;;;;;;;;;;;;;;21.83;65.02;99165.44;1087772;54;1462;-80
2023/09/18 02:50:28;;;;;;;;;;;;;;;21.79;65.50;99176.78;1088541;54;1349;-83
2023/09/18 02:51:33;;;;;;;;;;;;;;;21.73;65.69;99168.75;1088438;47;1015;-85
2023/09/18 02:52:53;;;;;;;;;;;;;;;21.78;65.34;99168.88;1088680;47;963;-83
2023/09/18 03:23:24;;;;;;;;;;;;;;;21.52;66.08;99124.81;1088189;54;1693;-81
2023/09/18 03:24:25;;;;;;;;;;;;;;;21.55;66.12;99121.59;1088333;54;899;-80
2023/09/18 03:26:53;;;;;;;;;;;;;;;21.55;66.57;99118.88;1087347;47;984;-79
2023/09/18 03:27:54;;;;;;;;;;;;;;;21.45;66.84;99110.50;1088278;54;879;-80
2023/09/18 03:28:58;;;;;;;;;;;;;;;21.50;66.34;99113.34;1087410;47;1173;-80
2023/09/18 03:29:59;;;;;;;;;;;;;;;21.51;66.17;99107.66;1087721;47;1136;-80
2023/09/18 03:31:04;;;;;;;;;;;;;;;21.51;66.27;99109.56;1087866;47;1455;-80
2023/09/18 03:32:12;;;;;;;;;;;;;;;21.52;65.83;99113.94;1087869;47;1015;-81
2023/09/18 03:33:15;;;;;;;;;;;;;;;21.51;66.39;99101.41;1087978;47;1051;-80
2023/09/18 03:34:16;;;;;;;;;;;;;;;21.50;65.99;99110.63;1087876;47;1082;-82
2023/09/18 03:35:18;;;;;;;;;;;;;;;21.51;66.30;99115.00;1087604;54;1213;-81
2023/09/18 03:36:29;;;;;;;;;;;;;;;21.48;66.12;99108.16;1087865;47;935;-84
2023/09/18 03:37:39;;;;;;;;;;;;;;;21.51;65.66;99112.28;1088121;47;1463;-81
2023/09/18 03:38:45;;;;;;;;;;;;;;;21.55;65.39;99102.56;1087929;54;1137;-80
2023/09/18 03:39:48;;;;;;;;;;;;;;;21.57;65.75;99096.91;1088014;54;1120;-83
2023/09/18 03:40:51;;;;;;;;;;;;;;;21.52;66.13;99086.75;1088451;54;1406;-83
2023/09/18 03:41:52;;;;;;;;;;;;;;;21.55;65.43;99080.81;1088275;54;1850;-82
2023/09/18 03:43:02;;;;;;;;;;;;;;;21.48;65.79;99080.13;1088386;54;1049;-83
2023/09/18 03:44:13;;;;;;;;;;;;;;;21.49;65.42;99079.88;1088286;47;1166;-83
2023/09/18 03:45:14;;;;;;;;;;;;;;;21.42;66.16;99075.66;1088131;47;1042;-81
2023/09/18 03:46:18;;;;;;;;;;;;;;;21.43;65.95;99085.47;1088074;47;1337;-80
2023/09/18 03:47:18;;;;;;;;;;;;;;;21.42;65.90;99081.91;1088377;54;1107;-81
2023/09/18 03:48:22;;;;;;;;;;;;;;;21.48;66.05;99093.72;1088014;54;1495;-81
2023/09/18 03:49:23;;;;;;;;;;;;;;;21.56;65.56;99093.34;1088246;54;1182;-82
2023/09/18 03:50:29;;;;;;;;;;;;;;;21.62;65.30;99097.88;1088341;46;1324;-79
2023/09/18 03:51:30;;;;;;;;;;;;;;;21.63;65.18;99121.25;1086747;54;1141;-80
2023/09/18 03:52:34;;;;;;;;;;;;;;;21.59;65.57;99133.69;1087265;46;1275;-80
2023/09/18 03:53:37;;;;;;;;;;;;;;;21.58;65.30;99158.38;1088152;46;1629;-80
2023/09/18 03:54:44;;;;;;;;;;;;;;;21.56;65.30;99164.03;1088513;54;1063;-82
2023/09/18 03:55:44;;;;;;;;;;;;;;;21.50;66.20;99165.00;1088468;54;1047;-82
2023/09/18 03:56:48;;;;;;;;;;;;;;;21.46;66.03;99175.53;1088314;54;1074;-83
2023/09/18 03:57:49;;;;;;;;;;;;;;;21.52;65.91;99176.47;1088564;54;1063;-83
2023/09/18 03:58:52;;;;;;;;;;;;;;;21.49;66.33;99185.91;1088124;46;1126;-80
2023/09/18 03:59:53;;;;;;;;;;;;;;;21.55;65.97;99180.59;1088380;47;1028;-81
2023/09/18 04:00:55;;;;;;;;;;;;;;;21.59;65.94;99174.47;1088230;54;1421;-81
2023/09/18 04:01:59;;;;;;;;;;;;;;;21.64;65.45;99177.28;1088457;47;1841;-81
2023/09/18 04:02:59;;;;;;;;;;;;;;;21.62;65.82;99186.75;1088405;47;1075;-81
2023/09/18 04:04:11;;;;;;;;;;;;;;;21.67;65.55;99184.16;1088645;54;1134;-81
2023/09/18 04:05:12;;;;;;;;;;;;;;;21.74;65.10;99193.00;1088492;54;1043;-80
2023/09/18 04:06:20;;;;;;;;;;;;;;;21.67;65.59;99197.75;1088373;54;1186;-81
2023/09/18 04:07:21;;;;;;;;;;;;;;;21.65;65.58;99195.25;1089029;54;1031;-83
2023/09/18 04:08:24;;;;;;;;;;;;;;;21.66;65.78;99199.63;1087906;47;915;-80
2023/09/18 04:09:25;;;;;;;;;;;;;;;21.68;65.36;99204.81;1088140;54;1031;-81
2023/09/18 04:10:32;;;;;;;;;;;;;;;21.75;65.30;99204.69;1088609;54;1426;-80
2023/09/18 04:11:35;;;;;;;;;;;;;;;21.79;65.31;99214.06;1088674;54;975;-83
2023/09/18 04:12:53;;;;;;;;;;;;;;;21.79;65.04;99222.22;1088713;54;1159;-83
2023/09/18 04:13:53;;;;;;;;;;;;;;;21.81;64.97;99214.66;1088697;47;994;-82
2023/09/18 04:14:57;;;;;;;;;;;;;;;21.82;65.07;99216.31;1088513;54;1082;-82
2023/09/18 04:16:00;;;;;;;;;;;;;;;21.79;65.25;99238.53;1087875;54;1177;-80
2023/09/18 04:17:04;;;;;;;;;;;;;;;21.76;65.07;99248.00;1087569;54;994;-81
2023/09/18 04:18:05;;;;;;;;;;;;;;;21.81;64.79;99252.72;1088257;54;1042;-82
2023/09/18 04:19:09;;;;;;;;;;;;;;;21.84;64.20;99251.41;1087891;54;1074;-82
2023/09/18 04:20:11;;;;;;;;;;;;;;;21.92;64.13;99251.88;1088197;54;1287;-82
2023/09/18 04:21:17;;;;;;;;;;;;;;;21.96;64.02;99247.63;1088147;54;1078;-81
2023/09/18 04:22:18;;;;;;;;;;;;;;;21.95;63.65;99250.59;1088070;54;1173;-82
2023/09/18 04:23:22;;;;;;;;;;;;;;;21.93;63.97;99261.69;1087569;54;1035;-82
2023/09/18 04:25:52;;;;;;;;;;;;;;;22.03;64.62;99231.16;1088650;54;1125;-83
2023/09/18 04:27:03;;;;;;;;;;;;;;;22.05;64.15;99236.34;1088338;54;1161;-81
2023/09/18 04:28:07;;;;;;;;;;;;;;;22.04;63.92;99240.97;1088271;47;1058;-81
2023/09/18 04:29:08;;;;;;;;;;;;;;;22.05;63.24;99233.63;1087735;54;1095;-82
2023/09/18 04:30:19;;;;;;;;;;;;;;;22.09;63.11;99232.09;1088249;47;1361;-83
2023/09/18 04:31:27;;;;;;;;;;;;;;;22.16;62.70;99224.63;1088505;54;1455;-84
2023/09/18 04:32:31;;;;;;;;;;;;;;;22.22;62.82;99220.91;1088433;54;1105;-80
2023/09/18 04:33:41;;;;;;;;;;;;;;;22.19;62.72;99226.88;1088455;54;1070;-83
2023/09/18 04:34:45;;;;;;;;;;;;;;;22.25;62.47;99215.00;1088425;54;1082;-84
2023/09/18 04:36:00;;;;;;;;;;;;;;;22.29;62.27;99213.44;1088265;47;987;-82
2023/09/18 04:37:14;;;;;;;;;;;;;;;22.28;62.16;99208.25;1088454;54;1545;-81
2023/09/18 04:38:15;;;;;;;;;;;;;;;22.29;61.80;99209.91;1088344;47;984;-82
2023/09/18 04:39:25;;;;;;;;;;;;;;;22.35;61.60;99213.53;1087867;54;981;-81
2023/09/18 04:40:26;;;;;;;;;;;;;;;22.41;61.28;99218.03;1088144;54;1325;-82
2023/09/18 04:41:32;;;;;;;;;;;;;;;22.39;61.50;99220.97;1087980;54;1857;-83
2023/09/18 04:42:33;;;;;;;;;;;;;;;22.46;61.32;99214.59;1088072;47;1204;-80
2023/09/18 04:43:38;;;;;;;;;;;;;;;22.48;61.62;99207.84;1087569;54;1055;-80
2023/09/18 04:44:39;;;;;;;;;;;;;;;22.50;61.77;99193.97;1087633;54;1095;-81
2023/09/18 04:45:50;;;;;;;;;;;;;;;22.55;61.72;99185.91;1087931;54;1040;-81
2023/09/18 04:47:14;;;;;;;;;;;;;;;22.55;61.59;99169.56;1087721;47;1398;-81
2023/09/18 04:48:52;;;;;;;;;;;;;;;22.62;61.21;99163.97;1088092;47;973;-81
2023/09/18 04:50:57;;;;;;;;;;;;;;;22.69;61.39;99165.47;1088146;46;1446;-82
2023/09/18 04:55:43;;;;;;;;;;;;;;;22.58;61.80;99085.47;1087151;47;1052;-80
2023/09/18 04:56:54;;;;;;;;;;;;;;;22.61;62.09;99088.78;1087238;46;956;-79
2023/09/18 04:57:58;;;;;;;;;;;;;;;22.62;61.92;99076.81;1087265;54;1188;-80
2023/09/18 04:58:59;;;;;;;;;;;;;;;22.59;61.99;99095.28;1087540;54;1094;-80
2023/09/18 05:00:02;;;;;;;;;;;;;;;22.63;62.04;99089.34;1087545;54;1095;-80
2023/09/18 05:01:04;;;;;;;;;;;;;;;22.59;62.12;99069.97;1086732;47;1378;-79
2023/09/18 05:02:09;;;;;;;;;;;;;;;22.52;63.18;99056.50;1086790;54;1900;-80
2023/09/18 05:03:13;;;;;;;;;;;;;;;22.49;63.82;99054.28;1087463;54;1019;-81
2023/09/18 05:05:47;;;;;;;;;;;;;;;22.48;63.94;99044.47;1087947;47;976;-81
2023/09/18 05:06:49;;;;;;;;;;;;;;;22.49;63.18;99051.56;1087662;54;1184;-81
2023/09/18 05:07:52;;;;;;;;;;;;;;;22.50;63.43;99047.75;1087910;54;1181;-83
2023/09/18 05:09:01;;;;;;;;;;;;;;;22.54;63.36;99048.94;1087667;47;1643;-82
2023/09/18 05:10:05;;;;;;;;;;;;;;;22.56;63.75;99038.63;1087816;54;1017;-80
2023/09/18 05:11:06;;;;;;;;;;;;;;;22.42;63.88;99043.56;1088015;54;1385;-84
2023/09/18 05:12:13;;;;;;;;;;;;;;;22.46;64.22;99040.34;1088177;54;1040;-83
2023/09/18 05:13:17;;;;;;;;;;;;;;;22.44;64.27;99049.56;1087575;54;1085;-80
2023/09/18 05:14:17;;;;;;;;;;;;;;;22.45;64.48;99055.84;1087830;54;1138;-83
2023/09/18 05:15:21;;;;;;;;;;;;;;;22.46;64.25;99052.06;1088242;46;1014;-80
2023/09/18 05:16:21;;;;;;;;;;;;;;;22.44;64.09;99051.47;1088119;54;1498;-83
2023/09/18 05:17:41;;;;;;;;;;;;;;;22.43;64.35;99052.53;1088051;54;1118;-81
2023/09/18 07:02:53;;;;;;;;;;;;;;;21.93;68.47;99152.03;1087765;54;1133;-82
2023/09/18 07:03:56;;;;;;;;;;;;;;;21.96;68.82;99159.75;1087668;54;1153;-81
2023/09/18 07:05:05;;;;;;;;;;;;;;;22.03;68.72;99156.84;1088358;54;1018;-82
2023/09/18 07:06:07;;;;;;;;;;;;;;;22.09;68.16;99158.63;1088054;47;1046;-82
2023/09/18 07:07:11;;;;;;;;;;;;;;;22.07;68.32;99158.03;1088387;46;982;-81
2023/09/18 07:08:16;;;;;;;;;;;;;;;22.08;68.20;99163.22;1087908;47;923;-81
2023/09/18 07:09:19;;;;;;;;;;;;;;;22.07;68.36;99161.56;1088258;54;1086;-81
2023/09/18 07:10:31;;;;;;;;;;;;;;;22.04;68.62;99169.38;1087925;54;1353;-83
2023/09/18 07:11:34;;;;;;;;;;;;;;;22.01;69.00;99159.81;1088141;54;1106;-82
2023/09/18 07:12:36;;;;;;;;;;;;;;;21.95;69.32;99156.16;1087613;54;1479;-81
2023/09/18 07:13:40;;;;;;;;;;;;;;;21.97;69.13;99159.47;1088139;54;1145;-81
2023/09/18 07:14:43;;;;;;;;;;;;;;;21.93;68.94;99157.50;1087932;54;1632;-81
2023/09/18 07:15:54;;;;;;;;;;;;;;;21.95;68.89;99161.63;1088001;47;1018;-82
2023/09/18 07:16:55;;;;;;;;;;;;;;;21.94;69.23;99159.97;1088007;54;1440;-83
2023/09/18 07:18:01;;;;;;;;;;;;;;;21.90;69.07;99163.41;1087866;47;1117;-81
2023/09/18 07:19:04;;;;;;;;;;;;;;;21.93;69.34;99166.47;1088086;47;1077;-80
2023/09/18 07:20:13;;;;;;;;;;;;;;;21.92;69.38;99164.00;1087593;54;1364;-82
2023/09/18 07:21:14;;;;;;;;;;;;;;;21.95;69.04;99168.97;1087862;54;1002;-81
2023/09/18 07:22:17;;;;;;;;;;;;;;;21.91;69.11;99171.34;1087904;54;1860;-82
2023/09/18 07:23:18;;;;;;;;;;;;;;;21.95;69.33;99172.50;1088288;54;1062;-81
2023/09/18 07:24:30;;;;;;;;;;;;;;;21.93;69.06;99182.78;1088198;54;1046;-82
2023/09/18 07:25:31;;;;;;;;;;;;;;;21.95;69.36;99183.38;1088229;47;991;-82
2023/09/18 07:26:41;;;;;;;;;;;;;;;21.95;69.25;99188.00;1087578;47;1137;-81
2023/09/18 07:27:44;;;;;;;;;;;;;;;21.92;69.11;99197.44;1088123;54;1146;-82
2023/09/18 07:28:48;;;;;;;;;;;;;;;21.94;69.38;99194.50;1088081;54;1081;-80
2023/09/18 07:29:49;;;;;;;;;;;;;;;21.89;69.20;99195.22;1087823;54;1101;-82
2023/09/18 07:30:52;;;;;;;;;;;;;;;21.88;69.21;99193.56;1088194;54;1434;-81
2023/09/18 07:31:55;;;;;;;;;;;;;;;21.94;69.23;99211.66;1087916;54;1216;-82
2023/09/18 07:33:01;;;;;;;;;;;;;;;22.01;69.14;99202.53;1087373;54;1022;-81
2023/09/18 07:34:03;;;;;;;;;;;;;;;22.01;68.77;99208.00;1088074;54;1181;-80
2023/09/18 07:35:07;;;;;;;;;;;;;;;21.93;69.27;99207.28;1087566;47;1066;-83
2023/09/18 07:36:09;;;;;;;;;;;;;;;22.04;69.11;99208.31;1087325;54;946;-79
2023/09/18 07:37:15;;;;;;;;;;;;;;;22.09;68.59;99215.78;1087660;47;1014;-80
2023/09/18 07:38:15;;;;;;;;;;;;;;;22.11;68.64;99211.72;1087168;47;1008;-79
2023/09/18 07:39:19;;;;;;;;;;;;;;;22.09;69.01;99213.06;1086487;54;1158;-79
2023/09/18 07:41:53;;;;;;;;;;;;;;;22.13;68.46;99217.75;1088712;47;889;-82
2023/09/18 07:45:48;;;;;;;;;;;;;;;22.11;68.99;99232.66;1088836;54;927;-84
2023/09/18 07:47:13;;;;;;;;;;;;;;;22.16;69.31;99227.34;1088681;54;1161;-83
2023/09/18 07:48:20;;;;;;;;;;;;;;;22.18;69.11;99225.22;1088723;47;971;-80
2023/09/18 07:49:21;;;;;;;;;;;;;;;22.17;69.02;99217.25;1088656;54;1134;-82
2023/09/18 07:50:24;;;;;;;;;;;;;;;22.13;69.09;99223.22;1088046;47;1319;-84
2023/09/18 07:51:25;;;;;;;;;;;;;;;22.21;68.65;99226.63;1088091;47;1082;-84
2023/09/18 07:52:29;;;;;;;;;;;;;;;22.28;68.44;99230.84;1088208;54;1169;-83
2023/09/18 07:53:32;;;;;;;;;;;;;;;22.26;68.23;99227.53;1088152;47;991;-83
2023/09/18 07:54:33;;;;;;;;;;;;;;;22.29;67.90;99226.22;1088308;54;1097;-84
2023/09/18 07:55:36;;;;;;;;;;;;;;;22.28;67.88;99236.31;1088228;54;1321;-84
2023/09/18 07:56:37;;;;;;;;;;;;;;;22.22;68.04;99237.25;1088040;54;1516;-82
2023/09/18 07:57:40;;;;;;;;;;;;;;;22.26;68.04;99232.16;1088273;47;1066;-81
2023/09/18 07:58:41;;;;;;;;;;;;;;;22.25;68.24;99238.66;1087970;54;1011;-82
2023/09/18 07:59:42;;;;;;;;;;;;;;;22.13;68.20;99246.84;1087491;54;1503;-80
2023/09/18 08:00:47;;;;;;;;;;;;;;;22.17;68.48;99245.31;1087998;54;1289;-82
2023/09/18 08:01:57;;;;;;;;;;;;;;;22.18;68.51;99241.53;1087183;47;1121;-82
2023/09/18 08:03:01;;;;;;;;;;;;;;;22.15;68.24;99247.44;1086644;54;1868;-78
2023/09/18 08:04:05;;;;;;;;;;;;;;;22.05;69.01;99247.25;1086953;47;1155;-81
2023/09/18 08:05:16;;;;;;;;;;;;;;;22.04;68.50;99243.69;1087975;54;1586;-81
2023/09/18 08:06:19;;;;;;;;;;;;;;;22.07;68.52;99242.38;1087752;47;1066;-81
2023/09/18 08:07:22;;;;;;;;;;;;;;;22.07;68.76;99245.09;1087839;47;1014;-82
2023/09/18 08:08:23;;;;;;;;;;;;;;;22.06;68.33;99248.91;1087986;54;1176;-80
2023/09/18 08:09:24;;;;;;;;;;;;;;;22.16;68.44;99246.38;1088174;54;1133;-82
2023/09/18 08:10:29;;;;;;;;;;;;;;;22.23;68.23;99244.34;1087890;54;1319;-84
2023/09/18 08:11:30;;;;;;;;;;;;;;;22.32;68.21;99246.69;1088278;54;1047;-82
2023/09/18 08:12:31;;;;;;;;;;;;;;;22.29;68.09;99240.66;1088081;47;1063;-84
2023/09/18 08:13:34;;;;;;;;;;;;;;;22.36;67.58;99231.53;1088112;54;967;-82
2023/09/18 08:14:36;;;;;;;;;;;;;;;22.41;67.24;99223.47;1088062;47;1071;-82
2023/09/18 08:15:55;;;;;;;;;;;;;;;22.48;67.08;99229.63;1088210;54;1042;-81
2023/09/18 08:17:02;;;;;;;;;;;;;;;22.55;67.05;99219.41;1088020;54;1099;-82
2023/09/18 08:18:06;;;;;;;;;;;;;;;22.63;66.92;99226.34;1088135;54;1138;-79
2023/09/18 08:19:18;;;;;;;;;;;;;;;22.69;66.77;99230.00;1088047;47;1062;-80
2023/09/18 08:20:22;;;;;;;;;;;;;;;22.72;66.73;99240.41;1087838;47;1299;-81
2023/09/18 08:21:23;;;;;;;;;;;;;;;22.68;66.80;99241.94;1087196;54;1239;-79
2023/09/18 08:22:27;;;;;;;;;;;;;;;22.61;67.41;99242.13;1087705;47;1835;-83
2023/09/18 08:23:28;;;;;;;;;;;;;;;22.69;66.99;99240.88;1087853;54;1110;-80
2023/09/18 08:24:28;;;;;;;;;;;;;;;22.75;66.83;99246.19;1087768;54;1219;-78
2023/09/18 08:25:32;;;;;;;;;;;;;;;22.77;66.75;99243.22;1087759;47;1003;-80
2023/09/18 08:26:36;;;;;;;;;;;;;;;22.80;66.57;99248.19;1087914;47;1036;-79
2023/09/18 08:27:47;;;;;;;;;;;;;;;22.81;66.64;99240.84;1087726;46;952;-81
2023/09/18 08:28:48;;;;;;;;;;;;;;;22.83;66.66;99222.34;1088302;54;1139;-80
2023/09/18 08:29:48;;;;;;;;;;;;;;;22.84;66.51;99233.00;1088227;47;1043;-83
2023/09/18 08:30:52;;;;;;;;;;;;;;;22.84;66.55;99224.84;1088120;54;1309;-83
2023/09/18 08:31:52;;;;;;;;;;;;;;;22.86;66.46;99219.13;1087942;54;1171;-82
2023/09/18 08:32:56;;;;;;;;;;;;;;;22.89;66.25;99224.91;1088136;46;1240;-82
2023/09/18 08:33:56;;;;;;;;;;;;;;;22.85;66.21;99221.03;1087671;47;1038;-82
2023/09/18 08:35:03;;;;;;;;;;;;;;;22.92;66.48;99211.88;1088010;54;1040;-81
2023/09/18 08:36:04;;;;;;;;;;;;;;;22.97;66.26;99211.94;1087987;54;980;-82
2023/09/18 08:37:11;;;;;;;;;;;;;;;22.96;66.18;99211.13;1088432;46;984;-80
2023/09/18 08:38:12;;;;;;;;;;;;;;;22.99;66.46;99220.72;1088173;54;1111;-82
2023/09/18 08:39:15;;;;;;;;;;;;;;;23.02;66.46;99222.94;1088015;47;1007;-82
2023/09/18 08:40:16;;;;;;;;;;;;;;;22.86;66.52;99230.84;1087770;47;1402;-82
2023/09/18 08:41:21;;;;;;;;;;;;;;;22.68;66.54;99231.06;1087974;54;1011;-80
2023/09/18 08:42:22;;;;;;;;;;;;;;;22.79;66.64;99246.53;1087699;54;1887;-83
2023/09/18 08:43:26;;;;;;;;;;;;;;;22.73;66.35;99247.50;1088011;54;1111;-82
2023/09/18 08:44:28;;;;;;;;;;;;;;;22.67;66.49;99243.06;1088055;54;1430;-82
2023/09/18 08:45:37;;;;;;;;;;;;;;;22.69;66.63;99240.88;1087862;47;1024;-82
2023/09/18 08:46:38;;;;;;;;;;;;;;;22.71;66.81;99245.03;1088336;47;1064;-83
2023/09/18 08:47:40;;;;;;;;;;;;;;;22.58;66.26;99240.69;1088409;46;1059;-80
2023/09/18 08:48:44;;;;;;;;;;;;;;;22.57;66.56;99244.50;1087901;54;1060;-83
2023/09/18 08:49:58;;;;;;;;;;;;;;;22.68;66.57;99244.69;1088008;54;1077;-82
2023/09/18 08:51:04;;;;;;;;;;;;;;;22.73;66.27;99250.22;1088314;54;1398;-81
2023/09/18 08:52:06;;;;;;;;;;;;;;;22.79;66.21;99251.16;1088084;54;1094;-82
2023/09/18 08:53:09;;;;;;;;;;;;;;;22.61;65.92;99238.56;1087490;54;1112;-82
2023/09/18 08:54:13;;;;;;;;;;;;;;;22.66;65.69;99241.41;1088536;54;1039;-82
2023/09/18 08:55:16;;;;;;;;;;;;;;;22.70;65.98;99237.09;1088362;54;1030;-81
2023/09/18 08:56:20;;;;;;;;;;;;;;;22.80;65.52;99239.19;1088438;54;1164;-80
2023/09/18 08:57:21;;;;;;;;;;;;;;;22.75;65.38;99240.75;1088305;54;1077;-82
2023/09/18 08:58:24;;;;;;;;;;;;;;;22.64;65.51;99235.34;1088310;54;1439;-82
2023/09/18 08:59:28;;;;;;;;;;;;;;;22.71;65.55;99238.75;1088664;54;1054;-80
2023/09/18 09:00:32;;;;;;;;;;;;;;;22.72;65.61;99251.31;1087038;54;1404;-83
2023/09/18 09:01:33;;;;;;;;;;;;;;;22.79;65.68;99240.25;1088215;54;1177;-83
2023/09/18 09:02:36;;;;;;;;;;;;;;;22.89;65.16;99252.16;1087724;47;1844;-80
2023/09/18 09:03:38;;;;;;;;;;;;;;;22.90;65.09;99251.09;1088392;54;1170;-82
2023/09/18 09:04:41;;;;;;;;;;;;;;;22.75;65.12;99250.81;1087803;54;1147;-82
2023/09/18 09:05:42;;;;;;;;;;;;;;;22.78;65.63;99254.94;1087709;54;1168;-80
2023/09/18 09:06:57;;;;;;;;;;;;;;;22.66;65.91;99249.56;1087491;54;1185;-79
2023/09/18 09:08:16;;;;;;;;;;;;;;;22.62;65.81;99248.38;1088329;54;1093;-78
2023/09/18 09:09:20;;;;;;;;;;;;;;;22.61;66.56;99252.19;1087595;54;1107;-79
2023/09/18 09:10:33;;;;;;;;;;;;;;;22.62;66.60;99251.94;1087831;54;1652;-82
2023/09/18 09:11:50;;;;;;;;;;;;;;;22.55;66.98;99246.66;1087755;46;1042;-81
2023/09/18 09:12:54;;;;;;;;;;;;;;;22.46;67.58;99250.81;1087976;46;1021;-81
2023/09/18 09:14:15;;;;;;;;;;;;;;;22.54;67.64;99255.88;1087895;54;1047;-81
2023/09/18 09:15:16;;;;;;;;;;;;;;;22.47;67.33;99265.25;1087357;54;1093;-80
2023/09/18 09:16:20;;;;;;;;;;;;;;;22.37;68.38;99280.28;1088028;54;1614;-80
2023/09/18 09:18:51;;;;;;;;;;;;;;;22.31;68.93;99296.75;1088620;54;1055;-81
2023/09/18 09:19:51;;;;;;;;;;;;;;;22.29;69.19;99302.44;1087495;54;1077;-83
2023/09/18 09:20:58;;;;;;;;;;;;;;;22.16;69.38;99298.09;1087750;54;1382;-79
2023/09/18 09:22:01;;;;;;;;;;;;;;;22.12;69.97;99294.19;1087586;54;995;-80
2023/09/18 09:23:08;;;;;;;;;;;;;;;22.12;70.00;99296.91;1086777;54;1866;-79
2023/09/18 09:24:13;;;;;;;;;;;;;;;22.11;70.05;99296.09;1086045;54;1058;-79
2023/09/18 09:25:25;;;;;;;;;;;;;;;21.97;70.34;99291.97;1084373;54;1091;-77
2023/09/18 09:26:29;;;;;;;;;;;;;;;21.85;70.66;99299.31;1084473;47;1079;-78
2023/09/18 09:27:42;;;;;;;;;;;;;;;21.93;71.19;99310.66;1084100;54;1070;-78
2023/09/18 09:28:46;;;;;;;;;;;;;;;21.85;71.49;99307.47;1084014;54;1116;-79
2023/09/18 09:29:57;;;;;;;;;;;;;;;21.75;72.01;99313.50;1084617;47;1492;-78
2023/09/18 09:31:05;;;;;;;;;;;;;;;21.83;71.83;99309.59;1086327;54;1384;-77
2023/09/18 09:32:13;;;;;;;;;;;;;;;21.66;71.88;99321.19;1085019;54;1557;-77
2023/09/18 09:33:18;;;;;;;;;;;;;;;21.68;72.21;99323.66;1085225;46;1026;-78
2023/09/18 09:34:24;;;;;;;;;;;;;;;21.60;71.90;99311.25;1086133;54;1184;-79
2023/09/18 09:35:29;;;;;;;;;;;;;;;21.60;71.49;99317.53;1086978;54;1104;-80
2023/09/18 09:36:30;;;;;;;;;;;;;;;21.43;72.59;99313.81;1085779;54;1180;-79
2023/09/18 09:39:15;;;;;;;;;;;;;;;21.35;73.71;99302.19;1087509;47;863;-79
2023/09/18 09:40:16;;;;;;;;;;;;;;;21.41;73.23;99299.63;1087287;54;1385;-79
2023/09/18 09:41:27;;;;;;;;;;;;;;;21.41;73.05;99299.63;1088067;54;1180;-79
2023/09/18 09:42:38;;;;;;;;;;;;;;;21.41;73.58;99294.19;1087432;54;1086;-83
2023/09/18 09:43:45;;;;;;;;;;;;;;;21.37;73.37;99291.09;1087638;54;1097;-80
2023/09/18 09:44:47;;;;;;;;;;;;;;;21.33;73.79;99284.47;1087896;54;1547;-81
2023/09/18 09:45:51;;;;;;;;;;;;;;;21.35;74.04;99293.22;1088412;54;1010;-81
2023/09/18 10:06:57;;;;;;;;;;;;;;;21.05;74.08;99272.38;1086670;54;989;-79
2023/09/18 10:08:01;;;;;;;;;;;;;;;20.99;74.26;99274.13;1087428;54;1455;-78
2023/09/18 10:09:07;;;;;;;;;;;;;;;21.04;74.40;99263.41;1087203;47;1005;-83
2023/09/18 10:10:08;;;;;;;;;;;;;;;21.02;74.28;99262.81;1087261;47;1360;-79
2023/09/18 10:11:16;;;;;;;;;;;;;;;21.06;74.08;99262.34;1088120;54;1034;-81
2023/09/18 10:12:20;;;;;;;;;;;;;;;21.03;74.06;99264.47;1087277;47;1111;-79
2023/09/18 10:13:26;;;;;;;;;;;;;;;21.02;74.31;99253.81;1087759;54;1180;-79
2023/09/18 10:14:31;;;;;;;;;;;;;;;21.10;74.42;99253.50;1086790;54;1144;-78
2023/09/18 10:15:33;;;;;;;;;;;;;;;21.13;74.50;99258.44;1088020;54;1070;-82
2023/09/18 10:16:39;;;;;;;;;;;;;;;21.08;74.06;99257.47;1087499;47;1047;-78
2023/09/18 10:17:44;;;;;;;;;;;;;;;21.15;73.86;99252.78;1087023;54;1081;-77
2023/09/18 10:18:57;;;;;;;;;;;;;;;21.19;73.74;99257.53;1087793;54;1022;-79
2023/09/18 10:20:17;;;;;;;;;;;;;;;21.18;73.63;99247.72;1087680;54;1147;-80
2023/09/18 10:21:27;;;;;;;;;;;;;;;21.22;73.98;99256.22;1088006;54;1098;-81
2023/09/18 10:22:32;;;;;;;;;;;;;;;21.24;73.75;99256.81;1086388;47;1003;-78
2023/09/18 10:23:44;;;;;;;;;;;;;;;21.26;73.95;99262.84;1086311;54;1857;-78
2023/09/18 10:24:47;;;;;;;;;;;;;;;21.29;73.58;99267.81;1086508;54;1152;-78
2023/09/18 10:25:51;;;;;;;;;;;;;;;21.33;73.18;99255.41;1086590;54;1038;-78
2023/09/18 10:26:55;;;;;;;;;;;;;;;21.40;73.33;99254.47;1086616;47;940;-79
2023/09/18 10:28:02;;;;;;;;;;;;;;;21.40;73.55;99257.19;1086525;54;1050;-79
2023/09/18 10:29:14;;;;;;;;;;;;;;;21.43;72.70;99252.09;1086473;46;1082;-79
2023/09/18 10:30:19;;;;;;;;;;;;;;;21.48;72.99;99254.97;1086714;47;1279;-79
2023/09/18 10:31:20;;;;;;;;;;;;;;;21.50;73.11;99260.97;1086600;54;1171;-79
2023/09/18 10:32:29;;;;;;;;;;;;;;;21.51;73.06;99264.53;1086290;54;1097;-80
2023/09/18 10:33:30;;;;;;;;;;;;;;;21.46;73.42;99267.09;1085573;47;1134;-80
2023/09/18 10:34:33;;;;;;;;;;;;;;;21.46;73.77;99267.94;1085291;54;1065;-80
2023/09/18 10:35:37;;;;;;;;;;;;;;;21.48;72.91;99260.41;1085691;54;1153;-80
2023/09/18 10:36:42;;;;;;;;;;;;;;;21.45;72.72;99268.16;1085795;54;1624;-77
2023/09/18 10:37:43;;;;;;;;;;;;;;;21.48;73.28;99260.41;1087024;54;1170;-79
2023/09/18 10:38:51;;;;;;;;;;;;;;;21.50;73.44;99268.31;1085918;54;1142;-78
2023/09/18 10:40:01;;;;;;;;;;;;;;;21.48;73.17;99262.28;1085818;47;1022;-77
2023/09/18 10:41:04;;;;;;;;;;;;;;;21.49;73.38;99269.38;1086104;54;1334;-81
2023/09/18 10:42:09;;;;;;;;;;;;;;;21.50;73.12;99269.13;1085477;47;1334;-80
2023/09/18 10:43:14;;;;;;;;;;;;;;;21.50;73.34;99274.56;1085347;54;1881;-79
2023/09/18 10:44:17;;;;;;;;;;;;;;;21.49;72.72;99283.78;1085584;47;1250;-78
2023/09/18 10:45:20;;;;;;;;;;;;;;;21.57;72.98;99284.50;1086096;54;1130;-81
2023/09/18 10:46:21;;;;;;;;;;;;;;;21.60;73.05;99300.38;1086311;54;1107;-81
2023/09/18 10:47:26;;;;;;;;;;;;;;;21.57;72.67;99296.19;1086599;54;1157;-82
2023/09/18 10:48:27;;;;;;;;;;;;;;;21.49;72.16;99288.41;1087302;54;1271;-79
2023/09/18 10:49:32;;;;;;;;;;;;;;;21.43;71.55;99289.34;1085852;47;1056;-77
2023/09/18 10:50:37;;;;;;;;;;;;;;;21.35;72.34;99293.22;1085439;54;1376;-79
2023/09/18 10:51:42;;;;;;;;;;;;;;;21.37;72.31;99295.69;1086413;54;991;-79
2023/09/18 10:52:43;;;;;;;;;;;;;;;21.32;72.11;99299.97;1086221;54;1568;-79
2023/09/18 10:53:49;;;;;;;;;;;;;;;21.18;72.52;99301.22;1086493;54;1109;-80